Time;durP1;ratioP1;P1;durP2;ratioP2;P2;SDS_P1;SDS_P2;PMS_P1;PMS_P2;Temp;Humidity;BMP_temperature;BMP_pressure;BME280_temperature;BME280_humidity;BME280_pressure;Samples;Min_cycle;Max_cycle;Signal;HPM_P1;HPM_P2
2023/09/21 00:00:32;;;;;;;2.80;2.60;;;18.10;1.00;;;;;;6217366;23;20591;-44
2023/09/21 00:02:58;;;;;;;2.90;2.60;;;18.10;1.00;;;;;;6217260;23;20366;-44
2023/09/21 00:05:28;;;;;;;3.20;2.70;;;18.10;1.00;;;;;;6218235;23;20381;-44
2023/09/21 00:07:54;;;;;;;2.97;2.37;;;18.10;1.00;;;;;;6218776;23;20459;-44
2023/09/21 00:10:20;;;;;;;3.80;3.47;;;18.00;1.00;;;;;;6217961;23;20385;-44
2023/09/21 00:12:47;;;;;;;3.13;2.83;;;18.00;1.00;;;;;;6216711;23;20636;-42
2023/09/21 00:15:21;;;;;;;3.67;3.37;;;18.00;1.00;;;;;;6216823;23;20375;-43
2023/09/21 00:17:51;;;;;;;3.17;2.83;;;18.00;1.00;;;;;;6218356;23;20689;-45
2023/09/21 00:20:23;;;;;;;6.27;3.07;;;18.00;1.00;;;;;;6216878;23;20388;-45
2023/09/21 00:22:51;;;;;;;3.00;2.70;;;18.00;1.00;;;;;;6217643;23;20488;-45
2023/09/21 00:25:17;;;;;;;3.50;2.93;;;18.00;1.00;;;;;;6216915;23;20439;-45
2023/09/21 00:27:42;;;;;;;4.43;3.50;;;18.00;1.00;;;;;;6218073;23;20365;-45
2023/09/21 00:30:09;;;;;;;3.10;2.80;;;18.00;1.00;;;;;;6217494;23;20426;-44
2023/09/21 00:32:38;;;;;;;4.83;2.83;;;18.00;1.00;;;;;;6190071;23;20165;-44
2023/09/21 00:35:11;;;;;;;3.23;2.93;;;18.00;1.00;;;;;;6217156;23;20400;-44
2023/09/21 00:37:37;;;;;;;3.93;2.90;;;18.00;1.00;;;;;;6216912;23;20569;-44
2023/09/21 00:40:13;;;;;;;3.33;2.83;;;18.00;1.00;;;;;;6216533;23;20400;-44
2023/09/21 00:42:39;;;;;;;2.90;2.60;;;18.00;1.00;;;;;;6216144;23;20352;-44
2023/09/21 00:45:08;;;;;;;3.20;2.90;;;18.00;99.90;;;;;;6216463;23;20420;-43
2023/09/21 00:47:39;;;;;;;4.53;2.93;;;18.00;99.90;;;;;;6215226;23;20619;-44
2023/09/21 00:50:08;;;;;;;4.10;3.10;;;18.00;99.90;;;;;;6216544;23;20807;-43
2023/09/21 00:52:35;;;;;;;3.30;2.80;;;18.00;99.90;;;;;;6187537;23;20515;-44
2023/09/21 00:55:01;;;;;;;3.13;2.83;;;18.00;99.90;;;;;;6213924;23;20657;-44
2023/09/21 00:57:27;;;;;;;3.90;2.70;;;17.90;99.90;;;;;;6214779;23;20956;-43
2023/09/21 00:59:52;;;;;;;3.37;2.67;;;17.90;99.90;;;;;;6190007;23;20377;-44
2023/09/21 01:02:22;;;;;;;4.30;3.60;;;17.90;99.90;;;;;;6216245;23;20387;-44
2023/09/21 01:04:47;;;;;;;3.20;2.70;;;17.90;99.90;;;;;;6191436;23;20150;-44
2023/09/21 01:07:17;;;;;;;3.27;2.97;;;17.90;99.90;;;;;;6215957;23;20464;-44
2023/09/21 01:09:44;;;;;;;3.70;3.30;;;17.90;99.90;;;;;;6191955;23;20131;-44
2023/09/21 01:12:13;;;;;;;3.10;2.80;;;17.90;99.90;;;;;;6216079;23;20357;-44
2023/09/21 01:14:39;;;;;;;3.50;3.20;;;17.90;99.90;;;;;;6188712;23;20431;-44
2023/09/21 01:17:04;;;;;;;4.93;3.10;;;17.90;99.90;;;;;;6216454;23;20428;-42
2023/09/21 01:19:30;;;;;;;3.77;2.93;;;17.80;99.90;;;;;;6215677;23;20163;-43
2023/09/21 01:21:59;;;;;;;3.80;3.10;;;17.80;99.90;;;;;;6215438;23;20549;-44
2023/09/21 01:24:25;;;;;;;4.20;3.23;;;17.90;1.00;;;;;;6190363;23;20229;-44
2023/09/21 01:26:50;;;;;;;3.53;3.23;;;17.90;1.00;;;;;;6216594;23;20455;-44
2023/09/21 01:29:16;;;;;;;3.30;2.73;;;17.90;1.00;;;;;;6216342;23;20661;-43
2023/09/21 01:31:43;;;;;;;6.40;3.60;;;17.90;1.00;;;;;;6216123;23;20154;-43
2023/09/21 01:34:11;;;;;;;4.97;3.00;;;17.90;99.90;;;;;;6216213;23;20388;-44
2023/09/21 01:36:37;;;;;;;3.23;2.57;;;17.90;99.90;;;;;;6216117;23;20354;-44
2023/09/21 01:39:08;;;;;;;2.80;2.50;;;17.90;99.90;;;;;;6216328;23;20377;-44
2023/09/21 01:41:35;;;;;;;3.30;3.00;;;17.90;99.90;;;;;;6216096;23;20555;-44
2023/09/21 01:44:01;;;;;;;3.37;3.00;;;17.90;99.90;;;;;;6216123;23;20469;-44
2023/09/21 01:46:26;;;;;;;3.50;3.20;;;17.90;99.90;;;;;;6215652;23;20381;-44
2023/09/21 01:48:53;;;;;;;3.97;3.13;;;18.00;99.90;;;;;;6216122;23;20522;-44
2023/09/21 01:51:19;;;;;;;3.37;2.87;;;18.00;1.00;;;;;;6216094;23;20150;-43
2023/09/21 01:53:45;;;;;;;3.50;2.77;;;18.00;1.00;;;;;;6216134;23;20411;-43
2023/09/21 01:56:11;;;;;;;3.80;2.67;;;18.00;1.00;;;;;;6216232;23;20633;-43
2023/09/21 01:58:36;;;;;;;3.30;2.97;;;18.00;1.00;;;;;;6216223;23;20543;-53
2023/09/21 02:01:03;;;;;;;3.50;2.90;;;18.00;1.00;;;;;;6216620;23;20388;-43
2023/09/21 02:03:31;;;;;;;3.30;3.00;;;18.00;1.00;;;;;;6216027;23;20138;-44
2023/09/21 02:05:57;;;;;;;3.33;3.03;;;18.00;1.00;;;;;;6216558;23;20831;-43
2023/09/21 02:08:23;;;;;;;3.40;3.03;;;18.00;1.00;;;;;;6189726;23;20401;-43
2023/09/21 02:10:50;;;;;;;4.27;3.20;;;18.00;1.00;;;;;;6189153;23;20493;-44
2023/09/21 02:13:16;;;;;;;2.50;2.30;;;18.00;1.00;;;;;;6216207;23;20164;-44
2023/09/21 02:15:43;;;;;;;2.47;2.27;;;18.00;1.00;;;;;;6216178;23;20657;-43
2023/09/21 02:18:09;;;;;;;3.53;2.83;;;18.00;1.00;;;;;;6216468;23;20745;-43
2023/09/21 02:20:46;;;;;;;3.43;3.10;;;18.00;1.00;;;;;;6215917;23;20391;-43
2023/09/21 02:23:12;;;;;;;3.43;2.97;;;18.10;1.00;;;;;;6191797;23;20380;-41
2023/09/21 02:25:40;;;;;;;3.30;3.00;;;18.00;1.00;;;;;;6216597;23;20791;-43
2023/09/21 02:28:09;;;;;;;3.00;2.77;;;18.10;1.00;;;;;;6215663;23;20483;-43
2023/09/21 02:30:37;;;;;;;4.70;2.67;;;18.10;1.00;;;;;;6215539;23;20361;-43
2023/09/21 02:33:04;;;;;;;3.13;2.73;;;18.10;1.00;;;;;;6216070;23;20388;-43
2023/09/21 02:35:33;;;;;;;2.83;2.60;;;18.10;1.00;;;;;;6215957;23;20796;-43
2023/09/21 02:37:59;;;;;;;4.87;2.60;;;18.10;1.00;;;;;;6214946;23;20439;-42
2023/09/21 02:40:25;;;;;;;3.87;3.07;;;18.10;1.00;;;;;;6216350;23;20417;-43
2023/09/21 02:42:53;;;;;;;3.20;2.83;;;18.10;1.00;;;;;;6190055;23;20411;-43
2023/09/21 02:45:25;;;;;;;3.73;2.90;;;18.10;37.30;;;;;;6213768;23;20666;-43
2023/09/21 02:47:54;;;;;;;2.97;2.70;;;18.10;61.30;;;;;;6217291;23;20392;-43
2023/09/21 02:50:25;;;;;;;3.80;3.00;;;18.10;99.90;;;;;;6218226;23;20801;-43
2023/09/21 02:53:07;;;;;;;2.70;2.50;;;18.10;99.90;;;;;;6217348;23;20546;-43
2023/09/21 02:55:37;;;;;;;3.13;2.60;;;18.10;99.90;;;;;;6217820;23;20483;-43
2023/09/21 02:58:10;;;;;;;3.73;2.77;;;18.10;1.00;;;;;;6215020;23;20827;-41
2023/09/21 03:00:44;;;;;;;4.70;2.70;;;18.10;99.90;;;;;;6215686;23;20435;-43
2023/09/21 03:03:15;;;;;;;4.70;3.30;;;18.10;1.00;;;;;;6216277;23;20657;-43
2023/09/21 03:05:49;;;;;;;3.20;2.90;;;18.00;1.00;;;;;;6189865;23;20373;-42
2023/09/21 03:08:15;;;;;;;3.20;2.90;;;18.00;73.30;;;;;;6217012;23;20361;-43
2023/09/21 03:10:49;;;;;;;6.30;3.03;;;18.00;99.90;;;;;;6218078;23;20392;-43
2023/09/21 03:13:19;;;;;;;3.40;3.10;;;17.90;99.90;;;;;;6217625;23;20676;-43
2023/09/21 03:15:58;;;;;;;4.67;2.97;;;17.90;99.90;;;;;;6216903;23;20427;-43
2023/09/21 03:18:27;;;;;;;4.37;3.67;;;17.90;1.00;;;;;;6217539;23;20427;-43
2023/09/21 03:20:53;;;;;;;3.33;3.03;;;17.90;1.00;;;;;;6217589;23;20377;-43
2023/09/21 03:23:21;;;;;;;3.80;3.50;;;17.90;1.00;;;;;;6216680;23;20396;-43
2023/09/21 03:25:47;;;;;;;3.50;3.10;;;17.90;1.00;;;;;;6216905;23;20390;-43
2023/09/21 03:28:17;;;;;;;3.40;3.10;;;17.90;1.00;;;;;;6215916;23;20715;-43
2023/09/21 03:30:47;;;;;;;3.80;2.77;;;17.90;1.00;;;;;;6216965;23;20719;-42
2023/09/21 03:33:15;;;;;;;3.73;3.10;;;17.90;99.90;;;;;;6215318;23;20788;-43
2023/09/21 03:35:41;;;;;;;3.20;2.90;;;17.90;1.00;;;;;;6213894;23;20770;-43
2023/09/21 03:38:29;;;;;;;4.90;2.90;;;18.00;1.00;;;;;;6213161;23;20404;-42
2023/09/21 03:40:56;;;;;;;3.70;2.90;;;18.00;1.00;;;;;;6215126;23;20623;-43
2023/09/21 03:43:23;;;;;;;6.50;3.20;;;18.00;1.00;;;;;;6215325;23;20394;-44
2023/09/21 03:45:49;;;;;;;3.33;3.03;;;18.00;1.00;;;;;;6215387;23;20384;-43
2023/09/21 03:48:15;;;;;;;3.30;3.00;;;18.00;1.00;;;;;;6216952;23;20396;-43
2023/09/21 03:50:42;;;;;;;4.17;3.53;;;18.00;1.00;;;;;;6214807;23;20522;-43
2023/09/21 03:53:10;;;;;;;3.30;2.90;;;18.00;18.90;;;;;;6216478;23;20361;-43
2023/09/21 03:55:37;;;;;;;4.40;3.13;;;18.00;99.90;;;;;;6216210;23;20707;-43
2023/09/21 03:58:03;;;;;;;3.27;2.90;;;18.00;56.70;;;;;;6216833;23;20436;-43
2023/09/21 04:03:10;;;;;;;3.60;3.30;;;18.00;22.60;;;;;;6215989;23;20389;-43
2023/09/21 04:05:37;;;;;;;3.63;3.33;;;18.10;99.90;;;;;;6214533;23;20361;-43
2023/09/21 04:08:04;;;;;;;3.93;3.53;;;18.20;99.90;;;;;;6215808;23;20634;-43
2023/09/21 04:10:30;;;;;;;6.67;3.27;;;18.20;99.90;;;;;;6215351;23;20450;-43
2023/09/21 04:12:56;;;;;;;5.80;3.10;;;18.20;1.00;;;;;;6214329;23;20812;-43
2023/09/21 04:15:29;;;;;;;3.70;3.30;;;18.30;1.00;;;;;;6214991;23;20400;-43
2023/09/21 04:17:55;;;;;;;3.13;2.70;;;18.30;1.00;;;;;;6213957;23;20432;-42
2023/09/21 04:20:21;;;;;;;3.20;2.90;;;18.30;1.00;;;;;;6211401;23;20380;-43
2023/09/21 04:22:49;;;;;;;3.27;2.80;;;18.30;1.00;;;;;;6211406;23;20389;-43
2023/09/21 04:25:16;;;;;;;3.60;3.07;;;18.30;1.00;;;;;;6211675;23;20447;-43
2023/09/21 04:27:47;;;;;;;3.47;3.17;;;18.30;54.80;;;;;;6211190;23;20389;-43
2023/09/21 04:30:15;;;;;;;4.57;3.17;;;18.30;99.90;;;;;;6213007;23;20389;-43
2023/09/21 04:32:46;;;;;;;3.20;2.90;;;18.30;99.90;;;;;;6210867;23;20360;-44
2023/09/21 04:35:12;;;;;;;3.87;3.53;;;18.30;1.00;;;;;;6209749;23;20368;-44
2023/09/21 04:37:38;;;;;;;4.23;3.43;;;18.20;1.00;;;;;;6208687;23;20732;-44
2023/09/21 04:40:11;;;;;;;4.30;3.90;;;18.20;1.00;;;;;;6209043;23;20455;-43
2023/09/21 04:42:41;;;;;;;4.10;3.70;;;18.30;99.90;;;;;;6209278;23;20157;-44
2023/09/21 04:45:11;;;;;;;4.07;3.30;;;18.20;1.00;;;;;;6210358;23;20397;-44
2023/09/21 04:47:48;;;;;;;9.87;4.67;;;18.00;4.00;;;;;;6210458;23;20769;-44
2023/09/21 04:50:16;;;;;;;3.47;3.17;;;18.00;99.90;;;;;;6211460;23;20352;-43
2023/09/21 04:52:43;;;;;;;4.43;3.17;;;17.90;1.00;;;;;;6209690;23;20437;-42
2023/09/21 04:55:10;;;;;;;3.57;3.27;;;17.80;1.00;;;;;;6209243;23;20384;-44
2023/09/21 04:57:36;;;;;;;3.90;3.57;;;17.70;1.00;;;;;;6183602;23;20709;-43
2023/09/21 05:00:07;;;;;;;3.97;3.60;;;17.70;17.60;;;;;;6210063;23;20581;-44
2023/09/21 05:02:33;;;;;;;3.57;3.27;;;17.70;6.90;;;;;;6211693;23;20517;-44
2023/09/21 05:04:59;;;;;;;4.57;4.03;;;17.80;1.00;;;;;;6208962;23;20792;-44
2023/09/21 05:07:25;;;;;;;3.90;3.27;;;17.90;1.00;;;;;;6182594;23;20421;-44
2023/09/21 05:09:51;;;;;;;3.57;3.20;;;18.00;1.00;;;;;;6205506;23;20731;-44
2023/09/21 05:12:18;;;;;;;3.87;3.57;;;18.00;1.00;;;;;;6207226;23;20466;-44
2023/09/21 05:14:45;;;;;;;3.80;3.00;;;18.10;99.90;;;;;;6207568;23;20361;-44
2023/09/21 05:17:11;;;;;;;5.47;3.47;;;18.10;99.90;;;;;;6209242;23;20437;-44
2023/09/21 05:19:37;;;;;;;3.80;3.40;;;18.10;1.00;;;;;;6211368;23;20385;-44
2023/09/21 05:22:04;;;;;;;4.37;3.97;;;18.10;1.00;;;;;;6209176;23;20435;-44
2023/09/21 05:24:30;;;;;;;3.70;3.40;;;18.10;99.90;;;;;;6209494;23;20381;-44
2023/09/21 05:26:56;;;;;;;4.50;4.10;;;18.20;99.90;;;;;;6156255;23;20423;-44
2023/09/21 05:29:22;;;;;;;4.10;3.70;;;18.20;99.90;;;;;;6209493;23;20769;-44
2023/09/21 05:31:49;;;;;;;4.00;3.60;;;18.20;99.90;;;;;;6207530;23;20182;-44
2023/09/21 05:34:15;;;;;;;3.73;3.30;;;18.20;99.90;;;;;;6158071;23;20451;-44
2023/09/21 05:36:42;;;;;;;3.77;3.47;;;18.20;99.90;;;;;;6212114;23;20484;-44
2023/09/21 05:39:08;;;;;;;3.83;3.13;;;18.20;99.90;;;;;;6185822;23;20404;-43
2023/09/21 05:41:34;;;;;;;7.93;3.60;;;18.20;99.90;;;;;;6212026;23;20436;-44
2023/09/21 05:44:00;;;;;;;4.70;3.50;;;18.20;99.90;;;;;;6213541;23;20360;-44
2023/09/21 05:46:26;;;;;;;4.00;3.50;;;18.30;97.90;;;;;;6213883;23;20425;-44
2023/09/21 05:48:52;;;;;;;4.70;3.70;;;18.30;1.00;;;;;;6210066;23;20212;-45
2023/09/21 05:51:18;;;;;;;4.47;3.40;;;18.40;1.00;;;;;;6210896;23;20501;-46
2023/09/21 05:53:43;;;;;;;5.80;4.07;;;18.50;1.00;;;;;;6211489;23;20357;-45
2023/09/21 05:56:09;;;;;;;4.67;3.33;;;18.50;1.00;;;;;;6212471;23;20553;-51
2023/09/21 05:58:36;;;;;;;4.00;3.60;;;18.60;1.00;;;;;;6212812;23;20181;-45
2023/09/21 06:01:03;;;;;;;4.67;3.63;;;18.70;99.90;;;;;;6213745;23;20395;-46
2023/09/21 06:03:29;;;;;;;4.30;3.90;;;18.80;99.90;;;;;;6211909;23;20475;-44
2023/09/21 06:05:55;;;;;;;5.60;3.80;;;18.90;18.60;;;;;;6211594;23;20960;-44
2023/09/21 06:08:20;;;;;;;4.50;3.97;;;19.00;1.00;;;;;;6188250;23;20142;-44
2023/09/21 06:10:46;;;;;;;6.37;3.70;;;19.10;1.00;;;;;;6212214;23;20392;-44
2023/09/21 06:13:12;;;;;;;4.67;3.80;;;19.10;99.90;;;;;;6210915;23;20216;-44
2023/09/21 06:15:46;;;;;;;4.43;4.03;;;19.20;99.90;;;;;;6210782;23;20392;-43
2023/09/21 06:18:11;;;;;;;4.70;3.63;;;19.30;1.00;;;;;;6210928;23;20536;-43
2023/09/21 06:20:37;;;;;;;4.07;3.47;;;19.30;99.90;;;;;;6212422;23;20354;-45
2023/09/21 06:23:06;;;;;;;4.47;3.70;;;19.40;99.90;;;;;;6212676;23;20141;-44
2023/09/21 06:25:33;;;;;;;3.80;3.47;;;19.50;99.90;;;;;;6188419;23;20157;-44
2023/09/21 06:27:58;;;;;;;5.10;3.00;;;19.60;99.90;;;;;;6212710;23;20396;-43
2023/09/21 06:30:24;;;;;;;6.00;3.50;;;19.70;75.90;;;;;;6212641;23;20398;-43
2023/09/21 06:32:49;;;;;;;4.50;3.40;;;19.70;99.90;;;;;;6160696;23;20176;-44
2023/09/21 06:35:15;;;;;;;6.27;3.40;;;19.80;99.90;;;;;;6213111;23;20134;-44
2023/09/21 06:37:41;;;;;;;8.17;3.83;;;19.90;59.60;;;;;;6210175;23;20177;-44
2023/09/21 06:40:07;;;;;;;5.70;3.40;;;20.00;1.00;;;;;;6212001;23;20154;-43
2023/09/21 06:42:35;;;;;;;4.90;3.43;;;20.00;1.00;;;;;;6211280;23;20165;-44
2023/09/21 06:45:00;;;;;;;4.60;3.47;;;20.10;1.00;;;;;;6212029;23;20385;-44
2023/09/21 06:47:28;;;;;;;4.23;2.80;;;20.20;99.90;;;;;;6211143;23;20439;-44
2023/09/21 06:49:54;;;;;;;5.37;4.23;;;20.30;99.90;;;;;;6210532;23;20836;-45
2023/09/21 06:52:21;;;;;;;4.30;3.60;;;20.40;20.40;;;;;;6211873;23;20856;-44
2023/09/21 06:54:48;;;;;;;5.27;3.67;;;20.50;99.90;;;;;;6210956;23;20531;-45
2023/09/21 06:57:15;;;;;;;4.20;3.77;;;20.70;99.90;;;;;;6214298;23;20429;-44
2023/09/21 06:59:41;;;;;;;4.53;3.50;;;20.80;1.00;;;;;;6187193;23;20351;-45
2023/09/21 07:02:07;;;;;;;3.83;3.23;;;21.00;1.00;;;;;;6213869;23;20617;-45
2023/09/21 07:04:36;;;;;;;6.70;3.17;;;21.10;99.90;;;;;;6213099;23;20412;-45
2023/09/21 07:07:04;;;;;;;3.90;3.37;;;21.20;1.00;;;;;;6212107;23;20154;-44
2023/09/21 07:09:31;;;;;;;4.27;3.87;;;21.20;1.00;;;;;;6209936;23;20824;-45
2023/09/21 07:11:58;;;;;;;6.10;3.80;;;21.20;1.00;;;;;;6184703;23;20405;-43
2023/09/21 07:14:24;;;;;;;4.07;3.67;;;21.30;1.00;;;;;;6211531;23;20395;-45
2023/09/21 07:16:49;;;;;;;4.20;3.40;;;21.30;1.00;;;;;;6186512;23;20487;-44
2023/09/21 07:19:15;;;;;;;3.93;3.63;;;21.30;1.00;;;;;;6211562;23;20153;-45
2023/09/21 07:21:41;;;;;;;4.37;3.17;;;21.30;1.00;;;;;;6213179;23;20445;-45
2023/09/21 07:24:07;;;;;;;3.40;3.10;;;21.30;1.00;;;;;;6213825;23;20146;-45
2023/09/21 07:26:34;;;;;;;5.80;3.97;;;21.30;1.00;;;;;;6211416;23;20138;-43
2023/09/21 07:29:06;;;;;;;3.70;3.33;;;21.30;1.00;;;;;;6209755;23;20361;-44
2023/09/21 07:31:33;;;;;;;6.23;4.07;;;21.50;1.00;;;;;;6210098;23;20813;-45
2023/09/21 07:33:59;;;;;;;5.90;3.67;;;21.70;1.00;;;;;;6212339;23;20391;-43
2023/09/21 07:36:25;;;;;;;4.60;3.40;;;22.10;99.90;;;;;;6213768;23;20412;-43
2023/09/21 07:38:53;;;;;;;3.83;3.47;;;22.20;99.90;;;;;;6212903;23;20439;-44
2023/09/21 07:41:19;;;;;;;3.50;3.10;;;22.40;99.90;;;;;;6211759;23;20507;-44
2023/09/21 07:43:45;;;;;;;4.13;3.40;;;22.80;99.90;;;;;;6213290;23;20391;-44
2023/09/21 07:46:11;;;;;;;4.10;3.50;;;23.40;99.90;;;;;;6214014;23;20187;-44
2023/09/21 07:48:36;;;;;;;3.07;2.80;;;23.90;99.90;;;;;;6214320;23;20178;-44
2023/09/21 07:51:06;;;;;;;3.50;3.20;;;24.20;57.60;;;;;;6213487;23;20190;-45
2023/09/21 07:53:32;;;;;;;5.33;3.37;;;24.30;19.20;;;;;;6215982;23;20430;-44
2023/09/21 07:56:08;;;;;;;3.33;3.00;;;24.30;1.00;;;;;;6215425;23;20446;-44
2023/09/21 07:58:33;;;;;;;3.90;3.33;;;24.00;1.00;;;;;;6190261;23;20657;-44
2023/09/21 08:01:00;;;;;;;5.10;3.27;;;23.70;5.40;;;;;;6214110;23;20800;-44
2023/09/21 08:03:26;;;;;;;3.57;3.27;;;23.50;5.40;;;;;;6212763;23;20241;-44
2023/09/21 08:05:54;;;;;;;3.87;3.50;;;23.50;4.90;;;;;;6213401;23;20381;-45
2023/09/21 08:08:21;;;;;;;4.00;3.53;;;23.50;14.30;;;;;;6213090;23;20138;-44
2023/09/21 08:10:47;;;;;;;4.93;3.70;;;23.60;6.90;;;;;;6215557;23;20388;-44
2023/09/21 08:13:13;;;;;;;3.27;2.97;;;23.60;1.00;;;;;;6214942;23;20381;-44
2023/09/21 08:15:38;;;;;;;4.43;3.53;;;23.70;1.00;;;;;;6214600;23;20404;-44
2023/09/21 08:18:07;;;;;;;3.30;3.00;;;23.50;1.00;;;;;;6214069;23;20240;-45
2023/09/21 08:20:33;;;;;;;3.77;3.37;;;23.30;1.00;;;;;;6213829;23;20138;-46
2023/09/21 08:22:59;;;;;;;3.63;3.03;;;23.40;1.00;;;;;;6213790;23;20384;-45
2023/09/21 08:25:24;;;;;;;4.03;3.47;;;23.50;1.00;;;;;;6212479;23;20377;-45
2023/09/21 08:27:51;;;;;;;3.73;3.43;;;24.00;1.00;;;;;;6211319;23;20423;-46
2023/09/21 08:30:17;;;;;;;4.10;3.70;;;24.40;1.00;;;;;;6212755;23;20154;-45
2023/09/21 08:32:43;;;;;;;3.53;3.23;;;25.60;1.00;;;;;;6212662;23;20361;-46
2023/09/21 08:35:11;;;;;;;3.30;3.00;;;26.20;1.00;;;;;;6214506;23;20365;-46
2023/09/21 08:37:36;;;;;;;3.37;3.07;;;26.10;1.00;;;;;;6214240;23;20481;-45
2023/09/21 08:40:06;;;;;;;3.83;3.47;;;25.70;1.00;;;;;;6187449;23;20403;-45
2023/09/21 08:42:32;;;;;;;4.03;3.33;;;25.20;1.00;;;;;;6214280;23;20162;-44
2023/09/21 08:44:58;;;;;;;3.60;3.30;;;25.10;1.00;;;;;;6213075;23;20416;-45
2023/09/21 08:47:25;;;;;;;2.90;2.60;;;25.30;1.00;;;;;;6187318;23;21010;-44
2023/09/21 08:49:50;;;;;;;3.90;3.37;;;25.50;1.00;;;;;;6215448;23;20396;-44
2023/09/21 08:52:17;;;;;;;4.67;3.63;;;25.80;1.00;;;;;;6216015;23;20516;-45
2023/09/21 08:54:43;;;;;;;3.90;3.40;;;26.40;1.00;;;;;;6216611;23;20154;-45
2023/09/21 08:57:11;;;;;;;3.27;2.50;;;26.80;1.00;;;;;;6186093;23;20902;-45
2023/09/21 08:59:42;;;;;;;4.10;3.70;;;27.60;1.00;;;;;;6213629;23;20467;-45
2023/09/21 09:02:15;;;;;;;3.87;3.30;;;28.80;1.00;;;;;;6188845;23;20370;-45
2023/09/21 09:04:44;;;;;;;4.13;3.13;;;30.10;1.00;;;;;;6214720;23;20384;-45
2023/09/21 09:07:12;;;;;;;3.83;3.47;;;32.10;1.00;;;;;;6216090;23;20377;-45
2023/09/21 09:09:39;;;;;;;4.03;3.17;;;33.10;1.00;;;;;;6188684;23;20381;-45
2023/09/21 09:12:24;;;;;;;4.00;3.60;;;33.10;1.00;;;;;;6213957;23;20388;-45
2023/09/21 09:14:51;;;;;;;3.60;2.90;;;32.40;1.00;;;;;;6214430;23;20384;-46
2023/09/21 09:17:18;;;;;;;3.40;3.10;;;32.10;1.00;;;;;;6216172;23;20404;-47
2023/09/21 09:19:47;;;;;;;4.03;3.20;;;32.10;1.00;;;;;;6213430;23;20413;-47
2023/09/21 09:22:16;;;;;;;4.57;3.27;;;31.70;1.00;;;;;;6215635;23;20392;-47
2023/09/21 09:24:42;;;;;;;3.93;3.27;;;31.50;1.00;;;;;;6214877;23;20384;-39
2023/09/21 09:27:08;;;;;;;3.53;3.23;;;31.30;1.00;;;;;;6215344;23;20886;-41
2023/09/21 09:29:49;;;;;;;4.30;3.53;;;30.40;1.00;;;;;;6215417;23;20363;-39
2023/09/21 09:32:18;;;;;;;3.70;3.40;;;29.80;1.00;;;;;;6212468;23;20369;-39
2023/09/21 09:34:50;;;;;;;3.53;3.10;;;29.40;1.00;;;;;;6214149;23;20396;-41
2023/09/21 09:37:18;;;;;;;3.07;2.77;;;28.70;1.00;;;;;;6214208;23;20491;-41
2023/09/21 09:39:45;;;;;;;3.37;3.07;;;28.10;1.00;;;;;;6212569;23;20381;-40
2023/09/21 09:42:13;;;;;;;3.33;3.03;;;27.60;1.00;;;;;;6212029;23;20452;-39
2023/09/21 09:44:54;;;;;;;3.60;2.70;;;27.30;1.00;;;;;;6211509;23;20663;-39
2023/09/21 09:47:22;;;;;;;3.43;3.13;;;27.20;1.00;;;;;;6188874;23;20373;-41
2023/09/21 09:49:49;;;;;;;3.10;2.73;;;26.90;1.00;;;;;;6188085;23;20471;-42
2023/09/21 09:52:18;;;;;;;3.47;3.17;;;26.60;1.00;;;;;;6189199;23;20831;-41
2023/09/21 09:54:47;;;;;;;3.17;2.90;;;26.30;1.00;;;;;;6215508;23;20724;-40
2023/09/21 09:57:13;;;;;;;4.43;2.90;;;26.10;1.00;;;;;;6188914;23;20706;-38
2023/09/21 09:59:44;;;;;;;2.63;2.43;;;25.90;1.00;;;;;;6187808;23;20358;-40
2023/09/21 10:02:16;;;;;;;3.40;3.10;;;25.70;1.00;;;;;;6188773;23;20381;-39
2023/09/21 10:04:43;;;;;;;3.70;3.40;;;25.60;1.00;;;;;;6213092;23;20808;-40
2023/09/21 10:07:09;;;;;;;3.40;2.70;;;25.40;1.00;;;;;;6214856;23;20393;-39
2023/09/21 10:09:37;;;;;;;3.10;2.80;;;25.30;1.00;;;;;;6214517;23;20385;-41
2023/09/21 10:12:03;;;;;;;4.33;3.00;;;25.20;1.00;;;;;;6186570;23;20397;-42
2023/09/21 10:14:33;;;;;;;3.30;3.00;;;25.10;1.00;;;;;;6186479;23;20370;-45
2023/09/21 10:17:04;;;;;;;3.20;2.90;;;25.00;1.00;;;;;;6213690;23;20431;-38
2023/09/21 10:19:36;;;;;;;3.30;2.90;;;25.10;1.00;;;;;;6212126;23;20386;-39
2023/09/21 10:22:24;;;;;;;3.93;2.93;;;25.10;1.00;;;;;;6211761;23;20381;-40
2023/09/21 10:24:53;;;;;;;4.50;3.00;;;25.30;1.00;;;;;;6185460;23;20397;-39
2023/09/21 10:27:24;;;;;;;4.77;2.83;;;25.60;1.00;;;;;;6188027;23;20396;-41
2023/09/21 10:29:54;;;;;;;3.23;2.90;;;25.80;1.00;;;;;;6213675;23;20357;-40
2023/09/21 10:32:25;;;;;;;2.60;2.40;;;25.80;1.00;;;;;;6185424;23;20474;-39
2023/09/21 10:34:50;;;;;;;3.37;2.50;;;25.80;1.00;;;;;;6209971;23;20393;-39
2023/09/21 10:37:27;;;;;;;2.97;2.67;;;25.90;1.00;;;;;;6213143;23;20447;-39
2023/09/21 10:40:00;;;;;;;3.90;3.17;;;26.20;1.00;;;;;;6187119;23;20430;-40
2023/09/21 10:42:28;;;;;;;3.30;2.50;;;26.30;1.00;;;;;;6188486;23;20381;-40
2023/09/21 10:44:56;;;;;;;3.50;3.07;;;26.30;1.00;;;;;;6188533;23;20786;-40
2023/09/21 10:47:29;;;;;;;2.47;2.27;;;26.40;1.00;;;;;;6212849;23;20462;-41
2023/09/21 10:49:59;;;;;;;2.73;2.43;;;26.60;1.00;;;;;;6182520;23;20408;-41
2023/09/21 10:52:27;;;;;;;3.60;3.30;;;26.70;1.00;;;;;;6184703;23;20432;-39
2023/09/21 10:54:54;;;;;;;2.20;2.00;;;26.80;1.00;;;;;;6212290;23;20381;-40
2023/09/21 10:57:27;;;;;;;3.50;2.63;;;26.70;1.00;;;;;;6212894;23;20452;-45
2023/09/21 10:59:55;;;;;;;3.10;2.80;;;26.60;1.00;;;;;;6214093;23;20487;-40
2023/09/21 11:02:21;;;;;;;2.30;2.10;;;26.60;1.00;;;;;;6212582;23;20476;-39
2023/09/21 11:04:48;;;;;;;3.70;1.93;;;26.50;1.00;;;;;;6210420;23;20658;-39
2023/09/21 11:07:14;;;;;;;3.13;2.30;;;26.40;1.00;;;;;;6182685;23;20178;-41
2023/09/21 11:09:43;;;;;;;2.30;2.00;;;26.50;1.00;;;;;;6184549;23;20484;-38
2023/09/21 11:12:14;;;;;;;3.17;2.57;;;26.50;1.00;;;;;;6187681;23;20483;-39
2023/09/21 11:14:53;;;;;;;3.03;2.43;;;26.30;1.00;;;;;;6215235;23;20349;-40
2023/09/21 11:17:19;;;;;;;4.07;2.87;;;26.40;1.00;;;;;;6214479;23;20475;-41
2023/09/21 11:19:46;;;;;;;2.80;2.50;;;26.40;1.00;;;;;;6187490;23;20385;-41
2023/09/21 11:22:15;;;;;;;2.70;2.30;;;26.50;1.00;;;;;;6211844;23;20402;-41
2023/09/21 11:24:42;;;;;;;2.97;2.67;;;26.50;1.00;;;;;;6185328;23;20392;-39
2023/09/21 11:27:14;;;;;;;2.50;1.93;;;26.60;1.00;;;;;;6212463;23;20381;-39
2023/09/21 11:29:40;;;;;;;2.17;1.97;;;26.60;1.00;;;;;;6185055;23;20376;-40
2023/09/21 11:32:17;;;;;;;5.97;2.20;;;26.70;1.00;;;;;;6186536;23;20488;-39
2023/09/21 11:34:44;;;;;;;3.13;2.43;;;26.60;1.00;;;;;;6214265;23;20838;-39
2023/09/21 11:37:10;;;;;;;3.10;2.50;;;26.40;1.00;;;;;;6212480;23;20511;-39
2023/09/21 11:39:42;;;;;;;2.70;1.83;;;26.50;1.00;;;;;;6211002;23;20561;-40
2023/09/21 11:42:10;;;;;;;2.90;2.43;;;26.80;1.00;;;;;;6210718;23;20484;-40
2023/09/21 11:44:41;;;;;;;3.97;2.83;;;27.40;1.00;;;;;;6188542;23;20565;-41
2023/09/21 11:47:10;;;;;;;2.40;2.00;;;28.00;1.00;;;;;;6187333;23;20638;-39
2023/09/21 11:49:43;;;;;;;2.83;2.63;;;28.20;1.00;;;;;;6189267;23;20472;-39
2023/09/21 11:52:11;;;;;;;2.70;2.50;;;28.70;1.00;;;;;;6212316;23;20433;-38
2023/09/21 11:54:40;;;;;;;2.60;2.40;;;28.70;1.00;;;;;;6211673;23;20380;-39
2023/09/21 11:57:06;;;;;;;2.90;2.70;;;28.70;1.00;;;;;;6211764;23;20434;-42
2023/09/21 11:59:34;;;;;;;2.43;2.23;;;28.90;1.00;;;;;;6186162;23;20381;-40
2023/09/21 12:02:00;;;;;;;2.97;2.70;;;28.90;1.00;;;;;;6213819;23;20404;-40
2023/09/21 12:04:29;;;;;;;2.57;2.30;;;29.20;1.00;;;;;;6215316;23;20400;-40
2023/09/21 12:06:55;;;;;;;2.43;2.23;;;30.00;1.00;;;;;;6187456;23;20830;-39
2023/09/21 12:09:22;;;;;;;2.20;1.90;;;30.50;1.00;;;;;;6213101;23;20425;-41
2023/09/21 12:11:50;;;;;;;3.77;2.30;;;31.10;1.00;;;;;;6214987;23;20709;-43
2023/09/21 12:14:16;;;;;;;3.40;2.63;;;31.20;1.00;;;;;;6212621;23;20365;-41
2023/09/21 12:16:42;;;;;;;2.53;1.97;;;30.80;1.00;;;;;;6211976;23;20726;-39
2023/09/21 12:19:09;;;;;;;2.40;2.20;;;31.30;1.00;;;;;;6187865;23;20479;-37
2023/09/21 12:21:35;;;;;;;2.70;2.10;;;31.60;1.00;;;;;;6189095;23;20162;-41
2023/09/21 12:24:04;;;;;;;5.50;2.17;;;31.40;1.00;;;;;;6215543;23;20632;-40
2023/09/21 12:26:30;;;;;;;3.37;2.20;;;31.20;1.00;;;;;;6212654;23;20347;-41
2023/09/21 12:28:56;;;;;;;6.37;2.30;;;31.00;1.00;;;;;;6213491;23;20376;-42
2023/09/21 12:31:22;;;;;;;4.07;2.63;;;30.80;1.00;;;;;;6214698;23;20188;-40
2023/09/21 12:33:50;;;;;;;5.00;2.40;;;30.60;1.00;;;;;;6212477;23;20476;-41
2023/09/21 12:36:16;;;;;;;2.93;2.50;;;30.40;1.00;;;;;;6210626;23;20393;-39
2023/09/21 12:38:42;;;;;;;3.93;2.20;;;30.30;1.00;;;;;;6209409;23;20408;-39
2023/09/21 12:41:09;;;;;;;2.80;2.33;;;30.50;1.00;;;;;;6210217;23;20821;-40
2023/09/21 12:43:38;;;;;;;2.40;1.90;;;30.70;1.00;;;;;;6185366;23;20233;-39
2023/09/21 12:46:04;;;;;;;4.03;2.40;;;30.70;1.00;;;;;;6211976;23;20915;-40
2023/09/21 12:48:30;;;;;;;2.73;2.00;;;30.60;1.00;;;;;;6211008;23;20384;-43
2023/09/21 12:50:56;;;;;;;2.40;2.20;;;30.50;1.00;;;;;;6212366;23;20590;-39
2023/09/21 12:53:21;;;;;;;2.90;2.30;;;30.60;1.00;;;;;;6184305;23;20503;-41
2023/09/21 12:55:47;;;;;;;2.50;2.30;;;30.70;1.00;;;;;;6210406;23;20154;-39
2023/09/21 12:58:13;;;;;;;3.57;1.87;;;30.90;1.00;;;;;;6211964;23;20557;-40
2023/09/21 13:00:40;;;;;;;3.60;2.30;;;31.10;1.00;;;;;;6161238;23;20338;-39